Time;durP1;ratioP1;P1;durP2;ratioP2;P2;SDS_P1;SDS_P2;PMS_P1;PMS_P2;Temp;Humidity;BMP_temperature;BMP_pressure;BME280_temperature;BME280_humidity;BME280_pressure;Samples;Min_cycle;Max_cycle;Signal;HPM_P1;HPM_P2
2021/07/03 00:00:14;;;;;;;1.10;1.02;;;20.30;99.90;;;;;;4950929;29;20193;-67
2021/07/03 00:02:42;;;;;;;1.20;1.20;;;20.30;99.90;;;;;;4950689;28;20209;-67
2021/07/03 00:05:11;;;;;;;1.10;1.10;;;20.30;99.90;;;;;;4950626;29;20294;-67
2021/07/03 00:07:38;;;;;;;1.13;1.13;;;20.30;99.90;;;;;;4951114;28;20204;-67
2021/07/03 00:10:06;;;;;;;1.33;1.33;;;20.30;99.90;;;;;;4945773;29;20201;-67
2021/07/03 00:12:33;;;;;;;1.27;1.27;;;20.30;99.90;;;;;;4952371;28;20280;-67
2021/07/03 00:15:00;;;;;;;1.13;1.13;;;20.40;99.90;;;;;;4954847;28;20201;-67
2021/07/03 00:17:27;;;;;;;1.27;1.27;;;20.40;99.90;;;;;;4954455;28;20205;-67
2021/07/03 00:19:56;;;;;;;1.20;1.20;;;20.40;99.90;;;;;;4953681;28;20235;-67
2021/07/03 00:22:23;;;;;;;1.02;1.02;;;20.30;99.90;;;;;;4955761;28;20268;-67
2021/07/03 00:24:50;;;;;;;1.10;1.10;;;20.30;99.90;;;;;;4955069;28;20232;-67
2021/07/03 00:27:17;;;;;;;1.60;1.50;;;20.30;99.90;;;;;;4955232;29;20207;-67
2021/07/03 00:29:44;;;;;;;1.45;1.45;;;20.30;99.90;;;;;;4954621;29;20669;-67
2021/07/03 00:32:11;;;;;;;1.27;1.27;;;20.30;99.90;;;;;;4954414;29;20271;-67
2021/07/03 00:34:38;;;;;;;1.20;1.20;;;20.30;99.90;;;;;;4954469;29;20193;-67
2021/07/03 00:37:06;;;;;;;1.42;1.40;;;20.30;99.90;;;;;;4954770;28;20233;-67
2021/07/03 00:39:33;;;;;;;2.83;1.60;;;20.30;99.90;;;;;;4952994;28;20220;-67
2021/07/03 00:42:00;;;;;;;1.42;1.23;;;20.30;99.90;;;;;;4954675;28;20737;-67
2021/07/03 00:44:29;;;;;;;1.13;1.13;;;20.30;99.90;;;;;;4952104;28;20232;-67
2021/07/03 00:47:00;;;;;;;1.23;1.20;;;20.30;99.90;;;;;;4953703;29;20233;-66
2021/07/03 00:49:29;;;;;;;1.45;1.35;;;20.30;99.90;;;;;;4953841;28;20203;-67
2021/07/03 00:51:56;;;;;;;1.60;1.40;;;20.30;99.90;;;;;;4953177;29;20811;-67
2021/07/03 00:54:26;;;;;;;1.40;1.40;;;20.30;99.90;;;;;;4953059;28;20300;-67
2021/07/03 00:57:02;;;;;;;1.50;1.40;;;20.30;99.90;;;;;;4954412;28;20506;-67
2021/07/03 00:59:33;;;;;;;1.58;1.48;;;20.30;99.90;;;;;;4952594;29;20235;-67
2021/07/03 01:02:00;;;;;;;1.20;1.20;;;20.30;99.90;;;;;;4953237;28;20201;-67
2021/07/03 01:04:28;;;;;;;1.02;1.02;;;20.30;99.90;;;;;;4953864;29;20224;-67
2021/07/03 01:06:55;;;;;;;1.92;1.13;;;20.30;99.90;;;;;;4954236;28;20248;-67
2021/07/03 01:09:23;;;;;;;1.40;1.30;;;20.30;99.90;;;;;;4969023;28;20681;-67
2021/07/03 01:11:52;;;;;;;1.25;1.15;;;20.30;99.90;;;;;;4954309;28;20244;-67
2021/07/03 01:14:20;;;;;;;1.48;1.40;;;20.30;99.90;;;;;;4954602;29;20308;-67
2021/07/03 01:16:49;;;;;;;1.35;1.35;;;20.30;99.90;;;;;;4951552;28;20217;-67
2021/07/03 01:19:17;;;;;;;1.58;1.48;;;20.20;99.90;;;;;;4953897;28;20705;-67
2021/07/03 01:21:49;;;;;;;1.40;1.40;;;20.20;99.90;;;;;;4952849;28;20213;-67
2021/07/03 01:24:17;;;;;;;1.38;1.38;;;20.20;99.90;;;;;;4968228;28;20234;-67
2021/07/03 01:26:49;;;;;;;1.50;1.50;;;20.20;99.90;;;;;;4952872;28;20708;-67
2021/07/03 01:29:18;;;;;;;1.10;1.10;;;20.20;99.90;;;;;;4952617;28;20206;-65
2021/07/03 01:31:46;;;;;;;1.30;1.30;;;20.20;99.90;;;;;;4951499;28;20233;-66
2021/07/03 01:34:15;;;;;;;1.50;1.40;;;20.20;99.90;;;;;;4953856;28;20555;-67
2021/07/03 01:36:44;;;;;;;1.80;1.70;;;20.20;99.90;;;;;;4952508;28;20565;-66
2021/07/03 01:39:14;;;;;;;1.55;1.45;;;20.20;99.90;;;;;;4968138;28;20214;-66
2021/07/03 01:41:43;;;;;;;1.48;1.38;;;20.20;99.90;;;;;;4968044;28;20287;-66
2021/07/03 01:44:13;;;;;;;1.60;1.50;;;20.20;99.90;;;;;;4949908;28;20265;-66
2021/07/03 01:46:41;;;;;;;1.20;1.20;;;20.30;99.90;;;;;;4952301;28;20288;-66
2021/07/03 01:49:10;;;;;;;1.65;1.40;;;20.30;99.90;;;;;;4953002;28;20201;-66
2021/07/03 01:51:48;;;;;;;1.20;1.20;;;20.30;99.90;;;;;;4952270;28;20503;-66
2021/07/03 01:54:16;;;;;;;2.65;1.30;;;20.30;99.90;;;;;;4952671;28;20665;-66
2021/07/03 01:56:58;;;;;;;1.40;1.30;;;20.40;99.90;;;;;;4953514;28;20272;-66
2021/07/03 01:59:32;;;;;;;1.38;1.30;;;20.40;99.90;;;;;;4964568;28;20243;-66
2021/07/03 02:02:05;;;;;;;1.50;1.40;;;20.30;99.90;;;;;;4950683;28;20237;-66
2021/07/03 02:04:36;;;;;;;1.63;1.52;;;20.30;99.90;;;;;;4951457;29;20637;-66
2021/07/03 02:07:05;;;;;;;1.30;1.30;;;20.30;99.90;;;;;;4951762;28;20621;-66
2021/07/03 02:09:37;;;;;;;1.38;1.30;;;20.30;99.90;;;;;;4951360;29;20209;-66
2021/07/03 02:12:06;;;;;;;1.50;1.40;;;20.30;99.90;;;;;;4951665;28;20205;-66
2021/07/03 02:14:44;;;;;;;1.27;1.27;;;20.30;99.90;;;;;;4951815;29;20213;-66
2021/07/03 02:17:25;;;;;;;1.75;1.65;;;20.30;99.90;;;;;;4944205;29;20217;-66
2021/07/03 02:19:53;;;;;;;3.08;1.70;;;20.30;99.90;;;;;;4951403;29;20205;-67
2021/07/03 02:22:24;;;;;;;1.90;1.80;;;20.30;99.90;;;;;;4951925;28;20216;-67
2021/07/03 02:24:54;;;;;;;2.03;1.92;;;20.20;99.90;;;;;;4951653;28;20737;-67
2021/07/03 02:27:24;;;;;;;4.38;1.98;;;20.20;99.90;;;;;;4952132;29;20242;-66
2021/07/03 02:29:56;;;;;;;2.05;1.95;;;20.20;99.90;;;;;;4951141;29;20585;-66
2021/07/03 02:32:23;;;;;;;1.70;1.60;;;20.10;99.90;;;;;;4952232;28;20237;-66
2021/07/03 02:34:51;;;;;;;1.70;1.60;;;20.10;99.90;;;;;;4952620;28;20200;-66
2021/07/03 02:37:18;;;;;;;1.65;1.50;;;20.10;99.90;;;;;;4952135;28;20209;-67
2021/07/03 02:39:45;;;;;;;1.50;1.45;;;20.10;99.90;;;;;;4950798;29;20240;-67
2021/07/03 02:42:14;;;;;;;1.50;1.42;;;20.20;99.90;;;;;;4950623;28;20566;-67
2021/07/03 02:44:42;;;;;;;1.58;1.17;;;20.20;99.90;;;;;;4950731;28;20233;-66
2021/07/03 02:47:09;;;;;;;1.25;1.25;;;20.20;99.90;;;;;;4951692;29;20743;-67
2021/07/03 02:49:37;;;;;;;1.17;1.08;;;20.30;99.90;;;;;;4950226;28;20237;-66
2021/07/03 02:52:04;;;;;;;1.30;1.30;;;20.30;99.90;;;;;;4951058;28;20205;-66
2021/07/03 02:54:32;;;;;;;1.30;1.30;;;20.40;99.90;;;;;;4966973;28;20208;-66
2021/07/03 02:57:00;;;;;;;1.30;1.30;;;20.40;99.90;;;;;;4950057;29;20220;-66
2021/07/03 02:59:31;;;;;;;1.30;1.30;;;20.50;99.90;;;;;;4966218;28;20259;-67
2021/07/03 03:02:01;;;;;;;1.25;1.25;;;20.50;99.90;;;;;;4951522;28;20193;-66
2021/07/03 03:04:28;;;;;;;1.55;1.45;;;20.50;99.90;;;;;;4966437;28;20255;-66
2021/07/03 03:06:54;;;;;;;1.30;1.30;;;20.50;99.90;;;;;;4952210;29;20193;-66
2021/07/03 03:09:22;;;;;;;1.10;1.10;;;20.50;99.90;;;;;;4966540;28;20581;-66
2021/07/03 03:11:50;;;;;;;1.02;1.02;;;20.50;99.90;;;;;;4950740;28;20209;-65
2021/07/03 03:14:17;;;;;;;1.15;1.15;;;20.60;99.90;;;;;;4967088;28;20657;-65
2021/07/03 03:16:46;;;;;;;1.40;1.30;;;20.60;99.90;;;;;;4949690;28;20213;-65
2021/07/03 03:19:13;;;;;;;1.10;1.10;;;20.60;99.90;;;;;;4951339;29;20197;-65
2021/07/03 03:21:43;;;;;;;1.10;1.10;;;20.70;99.90;;;;;;4951600;28;20267;-66
2021/07/03 03:24:10;;;;;;;1.30;1.30;;;20.70;99.90;;;;;;4966662;28;20604;-66
2021/07/03 03:26:37;;;;;;;1.38;1.27;;;20.70;99.90;;;;;;4952061;28;20200;-66
2021/07/03 03:29:07;;;;;;;2.90;1.38;;;20.70;99.90;;;;;;4965714;28;20209;-66
2021/07/03 03:31:35;;;;;;;1.42;1.30;;;20.70;99.90;;;;;;4950358;28;20201;-66
2021/07/03 03:34:06;;;;;;;1.65;1.55;;;20.70;99.90;;;;;;4951523;29;20193;-66
2021/07/03 03:36:33;;;;;;;1.27;1.27;;;20.70;99.90;;;;;;4950544;28;20213;-66
2021/07/03 03:39:01;;;;;;;1.40;1.30;;;20.80;99.90;;;;;;4966036;28;20263;-66
2021/07/03 03:41:29;;;;;;;1.40;1.40;;;20.80;99.90;;;;;;4951011;28;20248;-66
2021/07/03 03:43:58;;;;;;;1.33;1.33;;;20.80;99.90;;;;;;4957505;28;20220;-66
2021/07/03 03:46:28;;;;;;;1.80;1.70;;;20.80;99.90;;;;;;4939957;29;20220;-66
2021/07/03 03:48:56;;;;;;;2.00;1.77;;;20.80;99.90;;;;;;4950307;28;20205;-67
2021/07/03 03:51:26;;;;;;;2.25;2.05;;;20.70;99.90;;;;;;4950630;28;20641;-67
2021/07/03 03:53:53;;;;;;;1.98;1.50;;;20.70;99.90;;;;;;4950267;28;20205;-67
2021/07/03 03:56:20;;;;;;;1.73;1.63;;;20.70;99.90;;;;;;4951899;29;20196;-67
2021/07/03 03:58:47;;;;;;;1.90;1.80;;;20.70;99.90;;;;;;4949628;28;20689;-67
2021/07/03 04:01:20;;;;;;;1.58;1.48;;;20.70;99.90;;;;;;4949133;28;20193;-67
2021/07/03 04:03:47;;;;;;;1.55;1.40;;;20.70;99.90;;;;;;4950236;28;20316;-68
2021/07/03 04:06:14;;;;;;;1.52;1.48;;;20.70;99.90;;;;;;4951949;29;20259;-66
2021/07/03 04:08:44;;;;;;;1.45;1.45;;;20.70;99.90;;;;;;4949584;28;20208;-65
2021/07/03 04:11:11;;;;;;;1.45;1.45;;;20.80;99.90;;;;;;4956959;28;20252;-66
2021/07/03 04:13:38;;;;;;;1.48;1.38;;;20.80;99.90;;;;;;4949845;28;20213;-67
2021/07/03 04:16:05;;;;;;;1.35;1.35;;;20.90;99.90;;;;;;4941879;29;20224;-67
2021/07/03 04:18:33;;;;;;;1.90;1.80;;;20.90;99.90;;;;;;4950147;29;20288;-67
2021/07/03 04:21:01;;;;;;;1.30;1.30;;;20.90;99.90;;;;;;4949958;28;20205;-67
2021/07/03 04:23:28;;;;;;;1.30;1.30;;;20.90;99.90;;;;;;4951181;29;20213;-66
2021/07/03 04:25:56;;;;;;;1.48;1.38;;;21.00;99.90;;;;;;4966513;28;20315;-66
2021/07/03 04:28:28;;;;;;;1.20;1.20;;;21.00;99.90;;;;;;4949654;28;20209;-66
2021/07/03 04:30:55;;;;;;;1.23;1.23;;;21.10;99.90;;;;;;4942990;29;20280;-66
2021/07/03 04:33:22;;;;;;;2.65;1.80;;;21.10;99.90;;;;;;4948687;29;20284;-66
2021/07/03 04:35:51;;;;;;;1.45;1.33;;;21.10;99.90;;;;;;4965795;28;20213;-66
2021/07/03 04:38:19;;;;;;;1.20;1.20;;;21.10;99.90;;;;;;4951100;29;20303;-67
2021/07/03 04:40:46;;;;;;;1.30;1.30;;;21.20;99.90;;;;;;4950951;28;20237;-66
2021/07/03 04:43:16;;;;;;;1.50;1.50;;;21.30;99.90;;;;;;4945794;28;20257;-66
2021/07/03 04:45:43;;;;;;;1.30;1.30;;;21.30;99.90;;;;;;4945558;29;20592;-67
2021/07/03 04:48:10;;;;;;;1.40;1.40;;;21.40;99.90;;;;;;4950001;29;20228;-66
2021/07/03 04:50:41;;;;;;;1.30;1.23;;;21.50;99.90;;;;;;4964191;28;20221;-66
2021/07/03 04:53:08;;;;;;;1.88;1.60;;;21.60;99.90;;;;;;4950718;28;20280;-67
2021/07/03 04:55:35;;;;;;;1.40;1.30;;;21.70;99.90;;;;;;4950736;28;20248;-66
2021/07/03 04:58:02;;;;;;;1.45;1.38;;;21.80;99.90;;;;;;4964311;28;20232;-66
2021/07/03 05:00:30;;;;;;;1.90;1.30;;;22.00;99.90;;;;;;4952493;28;20201;-66
2021/07/03 05:02:58;;;;;;;1.70;1.63;;;22.10;99.90;;;;;;4968207;28;20208;-66
2021/07/03 05:05:25;;;;;;;1.50;1.45;;;22.20;99.90;;;;;;4953958;29;20260;-66
2021/07/03 05:07:52;;;;;;;1.42;1.42;;;22.30;99.90;;;;;;4953959;28;20205;-66
2021/07/03 05:10:20;;;;;;;1.50;1.40;;;22.40;99.90;;;;;;4953847;29;20588;-67
2021/07/03 05:12:47;;;;;;;1.38;1.38;;;22.50;99.90;;;;;;4953878;29;20197;-66
2021/07/03 05:15:14;;;;;;;1.75;1.67;;;22.60;99.90;;;;;;4953600;29;20197;-67
2021/07/03 05:17:42;;;;;;;1.38;1.38;;;22.70;99.90;;;;;;4953482;29;20283;-66
2021/07/03 05:20:11;;;;;;;1.45;1.45;;;22.70;99.90;;;;;;4953226;29;20197;-65
2021/07/03 05:22:38;;;;;;;1.50;1.40;;;22.80;99.90;;;;;;4953733;28;20284;-68
2021/07/03 05:25:05;;;;;;;1.80;1.70;;;22.90;99.90;;;;;;4954013;28;20233;-66
2021/07/03 05:27:32;;;;;;;1.55;1.52;;;22.90;99.90;;;;;;4954491;29;20688;-66
2021/07/03 05:29:59;;;;;;;1.50;1.50;;;23.00;99.90;;;;;;4952375;28;20805;-66
2021/07/03 05:32:26;;;;;;;2.00;1.90;;;23.00;99.90;;;;;;4953559;29;20198;-66
2021/07/03 05:34:54;;;;;;;1.77;1.67;;;23.00;99.90;;;;;;4953752;29;20209;-66
2021/07/03 05:37:23;;;;;;;1.70;1.60;;;23.00;99.90;;;;;;4954030;29;20292;-66
2021/07/03 05:39:49;;;;;;;1.50;1.50;;;23.10;99.90;;;;;;4953322;28;20233;-66
2021/07/03 05:42:17;;;;;;;1.60;1.60;;;23.20;99.90;;;;;;4953536;29;20292;-66
2021/07/03 05:44:43;;;;;;;1.33;1.33;;;23.20;99.90;;;;;;4952473;29;20225;-66
2021/07/03 05:47:10;;;;;;;1.58;1.58;;;23.40;99.90;;;;;;4953245;29;20244;-66
2021/07/03 05:49:37;;;;;;;1.50;1.40;;;23.50;99.90;;;;;;4951601;28;20666;-66
2021/07/03 05:52:08;;;;;;;1.42;1.42;;;23.60;99.90;;;;;;4953212;29;20197;-66
2021/07/03 05:54:35;;;;;;;1.73;1.63;;;23.70;99.90;;;;;;4953292;28;20625;-66
2021/07/03 05:57:02;;;;;;;1.60;1.50;;;23.80;99.90;;;;;;4953663;28;20205;-66
2021/07/03 05:59:29;;;;;;;1.55;1.55;;;23.90;99.90;;;;;;4962687;28;20299;-67
2021/07/03 06:01:56;;;;;;;1.58;1.50;;;24.00;99.90;;;;;;4952311;29;20561;-67
2021/07/03 06:04:23;;;;;;;1.45;1.45;;;24.00;99.90;;;;;;4953136;29;20583;-67
2021/07/03 06:06:51;;;;;;;1.20;1.20;;;24.00;99.90;;;;;;4953245;29;20312;-68
2021/07/03 06:09:19;;;;;;;1.20;1.20;;;24.10;99.90;;;;;;4952859;29;20205;-65
2021/07/03 06:11:48;;;;;;;1.77;1.67;;;24.20;99.90;;;;;;4952425;28;20197;-67
2021/07/03 06:14:15;;;;;;;2.38;1.90;;;24.20;99.90;;;;;;4953262;29;20208;-65
2021/07/03 06:16:42;;;;;;;1.55;1.48;;;24.10;99.90;;;;;;4950462;29;20252;-65
2021/07/03 06:19:09;;;;;;;1.30;1.30;;;24.00;99.90;;;;;;4952587;29;20197;-66
2021/07/03 06:21:37;;;;;;;1.50;1.50;;;24.00;99.90;;;;;;4951198;29;20299;-66
2021/07/03 06:24:07;;;;;;;1.88;1.77;;;24.10;99.90;;;;;;4953200;29;20300;-67
2021/07/03 06:26:35;;;;;;;1.25;1.25;;;24.20;99.90;;;;;;4952902;29;21437;-66
2021/07/03 06:29:02;;;;;;;2.50;1.60;;;24.30;99.90;;;;;;4953316;28;20216;-66
2021/07/03 06:31:29;;;;;;;1.58;1.50;;;24.50;99.90;;;;;;4966201;28;20224;-65
2021/07/03 06:33:56;;;;;;;1.58;1.48;;;24.70;99.90;;;;;;4952938;29;20193;-66
2021/07/03 06:36:25;;;;;;;1.30;1.20;;;25.20;99.90;;;;;;4953103;29;20226;-66
2021/07/03 06:38:52;;;;;;;1.40;1.40;;;25.50;99.90;;;;;;4953129;28;20569;-66
2021/07/03 06:41:19;;;;;;;1.55;1.52;;;25.60;99.90;;;;;;4952424;29;20713;-66
2021/07/03 06:43:47;;;;;;;1.30;1.30;;;25.60;99.90;;;;;;4944707;29;20589;-66
2021/07/03 06:46:14;;;;;;;1.40;1.40;;;25.60;99.90;;;;;;4949520;29;20233;-66
2021/07/03 06:48:41;;;;;;;2.75;1.60;;;25.70;99.90;;;;;;4952038;29;20208;-66
2021/07/03 06:51:08;;;;;;;1.50;1.40;;;25.70;99.90;;;;;;4952360;29;20296;-67
2021/07/03 06:53:35;;;;;;;1.52;1.42;;;25.90;99.90;;;;;;4952161;28;20233;-66
2021/07/03 06:56:02;;;;;;;1.80;1.70;;;26.30;99.90;;;;;;4952053;29;20273;-66
2021/07/03 06:58:29;;;;;;;1.33;1.33;;;26.80;99.90;;;;;;4950658;28;20204;-66
2021/07/03 07:00:57;;;;;;;1.67;1.58;;;27.20;99.90;;;;;;4951545;28;20197;-67
2021/07/03 07:03:24;;;;;;;1.40;1.40;;;27.40;99.90;;;;;;4950775;29;20535;-66
2021/07/03 07:05:51;;;;;;;1.60;1.60;;;27.50;99.90;;;;;;4951983;29;20213;-66
2021/07/03 07:08:18;;;;;;;2.67;2.47;;;27.50;99.90;;;;;;4951545;29;20243;-67
2021/07/03 07:10:45;;;;;;;2.30;2.20;;;27.80;99.90;;;;;;4951874;29;20201;-66
2021/07/03 07:13:12;;;;;;;2.75;2.55;;;28.10;99.90;;;;;;4951787;29;20387;-67
2021/07/03 07:15:39;;;;;;;2.47;2.30;;;28.20;99.90;;;;;;4951805;28;20201;-66
2021/07/03 07:18:08;;;;;;;2.17;2.08;;;28.40;99.90;;;;;;4951083;28;20224;-67
2021/07/03 07:20:35;;;;;;;2.13;2.03;;;28.90;99.90;;;;;;4951621;29;20740;-67
2021/07/03 07:23:02;;;;;;;2.25;2.15;;;29.10;99.90;;;;;;4965641;28;20296;-67
2021/07/03 07:25:29;;;;;;;2.20;2.10;;;28.90;99.90;;;;;;4951712;29;20210;-67
2021/07/03 07:27:56;;;;;;;2.30;2.20;;;28.70;99.90;;;;;;4965785;28;20208;-66
2021/07/03 07:30:23;;;;;;;2.55;2.45;;;28.50;99.90;;;;;;4951912;29;20236;-67
2021/07/03 07:32:50;;;;;;;2.08;1.98;;;28.10;99.90;;;;;;4950803;28;20213;-67
2021/07/03 07:35:19;;;;;;;1.95;1.80;;;27.80;99.90;;;;;;4951460;29;20662;-67
2021/07/03 07:37:48;;;;;;;2.67;2.47;;;27.60;99.90;;;;;;4952362;28;20197;-67
2021/07/03 07:40:15;;;;;;;3.03;2.50;;;27.40;99.90;;;;;;4951429;29;20233;-67
2021/07/03 07:42:42;;;;;;;3.80;3.45;;;27.10;99.90;;;;;;4951525;29;20201;-67
2021/07/03 07:45:10;;;;;;;3.08;2.78;;;26.80;99.90;;;;;;4948593;28;20201;-67
2021/07/03 07:47:38;;;;;;;3.20;3.00;;;26.60;99.90;;;;;;4950742;28;20229;-66
2021/07/03 07:50:06;;;;;;;2.75;2.55;;;26.50;99.90;;;;;;4951294;29;20199;-66
2021/07/03 07:52:35;;;;;;;3.10;2.90;;;26.50;99.90;;;;;;4951456;29;20240;-66
2021/07/03 07:55:02;;;;;;;3.45;3.15;;;26.70;99.90;;;;;;4951064;29;20677;-66
2021/07/03 07:57:29;;;;;;;3.22;3.03;;;26.80;99.90;;;;;;4951680;29;20193;-66
2021/07/03 07:59:56;;;;;;;3.10;2.90;;;27.00;99.90;;;;;;4951308;28;20598;-66
2021/07/03 08:02:23;;;;;;;3.00;2.78;;;27.20;99.90;;;;;;4964923;28;20213;-66
2021/07/03 08:04:50;;;;;;;2.60;2.40;;;27.40;99.90;;;;;;4950563;28;20229;-66
2021/07/03 08:07:17;;;;;;;2.95;2.75;;;27.40;99.90;;;;;;4951296;29;20304;-66
2021/07/03 08:09:45;;;;;;;2.42;2.33;;;27.30;99.90;;;;;;4959825;28;20208;-66
2021/07/03 08:12:12;;;;;;;1.80;1.70;;;27.30;99.90;;;;;;4950781;28;20207;-66
2021/07/03 08:14:39;;;;;;;1.83;1.73;;;27.30;99.90;;;;;;4950793;29;20561;-66
2021/07/03 08:17:07;;;;;;;1.85;1.75;;;27.30;99.90;;;;;;4950198;28;20208;-67
2021/07/03 08:19:34;;;;;;;1.63;1.63;;;27.30;99.90;;;;;;4950930;29;20204;-66
2021/07/03 08:22:01;;;;;;;1.80;1.70;;;27.20;99.90;;;;;;4951360;29;20284;-65
2021/07/03 08:24:28;;;;;;;2.00;1.90;;;27.20;99.90;;;;;;4950924;29;20197;-66
2021/07/03 08:26:57;;;;;;;1.67;1.67;;;27.00;99.90;;;;;;4951050;28;20578;-66
2021/07/03 08:29:24;;;;;;;2.15;2.05;;;26.90;99.90;;;;;;4951652;29;20292;-66
2021/07/03 08:31:51;;;;;;;1.65;1.65;;;26.90;99.90;;;;;;4949178;28;20217;-66
2021/07/03 08:34:18;;;;;;;1.83;1.80;;;26.80;99.90;;;;;;4951476;28;20236;-66
2021/07/03 08:36:44;;;;;;;2.03;1.92;;;26.70;99.90;;;;;;4954674;28;20288;-66
2021/07/03 08:39:11;;;;;;;1.92;1.83;;;26.60;99.90;;;;;;4953814;28;21706;-66
2021/07/03 08:41:41;;;;;;;1.98;1.88;;;26.50;99.90;;;;;;4954647;28;20574;-67
2021/07/03 08:44:12;;;;;;;1.80;1.70;;;26.50;99.90;;;;;;4954151;28;20284;-67
2021/07/03 08:46:39;;;;;;;1.92;1.80;;;26.40;99.90;;;;;;4951120;29;20235;-67
2021/07/03 08:49:06;;;;;;;1.90;1.80;;;26.40;99.90;;;;;;4954065;28;20201;-66
2021/07/03 08:51:33;;;;;;;2.30;2.20;;;26.40;99.90;;;;;;4954983;29;20201;-67
2021/07/03 08:54:01;;;;;;;1.80;1.70;;;26.40;99.90;;;;;;4954635;29;20736;-67
2021/07/03 08:56:28;;;;;;;1.80;1.70;;;26.40;99.90;;;;;;4954823;28;20260;-67
2021/07/03 08:58:55;;;;;;;1.85;1.77;;;26.40;99.90;;;;;;4952888;29;20201;-67
2021/07/03 09:01:24;;;;;;;1.67;1.63;;;26.40;99.90;;;;;;4953635;29;20194;-66
2021/07/03 09:03:52;;;;;;;1.80;1.70;;;26.30;99.90;;;;;;4951836;28;20221;-67
2021/07/03 09:06:30;;;;;;;2.13;2.03;;;26.30;99.90;;;;;;4954453;29;20578;-67
2021/07/03 09:08:57;;;;;;;1.50;1.50;;;26.30;99.90;;;;;;4954282;29;20376;-67
2021/07/03 09:11:24;;;;;;;1.85;1.75;;;26.20;99.90;;;;;;4954557;28;20204;-66
2021/07/03 09:14:00;;;;;;;2.17;2.08;;;26.30;99.90;;;;;;4953951;28;20209;-66
2021/07/03 09:16:33;;;;;;;1.90;1.80;;;26.40;99.90;;;;;;4946393;29;20208;-67
2021/07/03 09:19:02;;;;;;;2.22;2.13;;;26.50;99.90;;;;;;4948041;29;20251;-66
2021/07/03 09:21:30;;;;;;;2.58;2.38;;;26.60;99.90;;;;;;4948237;29;20198;-67
2021/07/03 09:23:58;;;;;;;2.30;2.20;;;26.70;99.90;;;;;;4954109;28;20284;-66
2021/07/03 09:26:25;;;;;;;2.10;2.00;;;26.80;99.90;;;;;;4953291;29;20784;-67
2021/07/03 09:28:52;;;;;;;2.22;2.13;;;26.90;99.90;;;;;;4952874;28;20227;-67
2021/07/03 09:31:20;;;;;;;2.13;2.03;;;26.90;99.90;;;;;;4953129;28;20554;-67
2021/07/03 09:33:50;;;;;;;2.65;2.10;;;26.90;99.90;;;;;;4953044;28;20284;-68
2021/07/03 09:36:24;;;;;;;2.20;2.10;;;26.90;99.90;;;;;;4953748;29;20680;-67
2021/07/03 09:38:53;;;;;;;2.38;2.28;;;26.90;99.90;;;;;;4968964;28;20236;-66
2021/07/03 09:41:22;;;;;;;1.83;1.80;;;26.90;99.90;;;;;;4953307;29;20332;-66
2021/07/03 09:44:00;;;;;;;2.30;2.20;;;26.90;99.90;;;;;;4945158;28;20206;-66
2021/07/03 09:46:29;;;;;;;1.98;1.88;;;26.90;99.90;;;;;;4952114;28;20209;-66
2021/07/03 09:49:00;;;;;;;2.20;2.10;;;27.00;99.90;;;;;;4953791;29;20260;-66
2021/07/03 09:51:32;;;;;;;2.03;1.92;;;27.10;99.90;;;;;;4941412;29;20669;-66
2021/07/03 09:54:00;;;;;;;2.60;2.50;;;27.10;99.90;;;;;;4953599;28;20201;-66
2021/07/03 09:56:28;;;;;;;2.33;2.17;;;27.20;99.90;;;;;;4953906;29;20539;-66
2021/07/03 09:58:55;;;;;;;2.40;2.30;;;27.20;99.90;;;;;;4953914;28;20207;-66
2021/07/03 10:01:22;;;;;;;2.45;2.35;;;27.20;99.90;;;;;;4952719;28;20201;-66
2021/07/03 10:03:49;;;;;;;2.05;1.95;;;27.30;99.90;;;;;;4952392;29;20760;-67
2021/07/03 10:06:22;;;;;;;2.00;1.90;;;27.30;99.90;;;;;;4952911;29;20198;-67
2021/07/03 10:08:53;;;;;;;1.90;1.80;;;27.30;99.90;;;;;;4946799;28;20288;-66
2021/07/03 10:11:24;;;;;;;2.78;2.58;;;27.30;99.90;;;;;;4953384;28;20280;-66
2021/07/03 10:13:56;;;;;;;2.10;2.00;;;27.20;99.90;;;;;;4952889;29;20284;-66
2021/07/03 10:16:23;;;;;;;2.67;2.50;;;27.20;99.90;;;;;;4951126;28;20240;-66
2021/07/03 10:18:50;;;;;;;2.53;2.42;;;27.20;99.90;;;;;;4951917;29;20216;-67
2021/07/03 10:21:23;;;;;;;2.05;1.95;;;27.10;99.90;;;;;;4953003;29;20205;-67
2021/07/03 10:23:50;;;;;;;3.33;2.50;;;27.10;99.90;;;;;;4952695;29;20233;-67
2021/07/03 10:26:17;;;;;;;2.55;2.45;;;27.00;99.90;;;;;;4951609;28;20289;-68
2021/07/03 10:28:49;;;;;;;2.30;2.20;;;27.00;99.90;;;;;;4953041;28;20645;-67
2021/07/03 10:31:17;;;;;;;2.80;2.60;;;26.90;99.90;;;;;;4950571;29;20201;-65
2021/07/03 10:33:47;;;;;;;3.53;2.67;;;26.90;99.90;;;;;;4952177;28;20293;-66
2021/07/03 10:36:29;;;;;;;2.72;2.63;;;26.80;99.90;;;;;;4952507;29;20225;-67
2021/07/03 10:38:58;;;;;;;2.45;2.28;;;26.80;99.90;;;;;;4953042;29;20271;-66
2021/07/03 10:41:27;;;;;;;2.00;1.90;;;26.80;99.90;;;;;;4952308;28;20241;-66
2021/07/03 10:43:56;;;;;;;2.70;2.58;;;26.90;99.90;;;;;;4943948;28;20205;-66
2021/07/03 10:46:28;;;;;;;2.83;2.72;;;26.80;99.90;;;;;;4951204;29;20248;-66
2021/07/03 10:48:57;;;;;;;3.00;2.80;;;26.90;99.90;;;;;;4952578;29;20197;-66
2021/07/03 10:51:32;;;;;;;3.35;3.15;;;26.90;99.90;;;;;;4946119;29;20197;-67
2021/07/03 10:54:19;;;;;;;3.95;3.63;;;26.90;99.90;;;;;;4949827;28;20239;-66
2021/07/03 10:56:49;;;;;;;3.70;3.50;;;26.80;99.90;;;;;;4951536;28;20202;-67
2021/07/03 10:59:17;;;;;;;4.05;3.75;;;26.70;99.90;;;;;;4950937;28;20197;-67
2021/07/03 11:01:45;;;;;;;3.78;3.50;;;26.60;99.90;;;;;;4951137;29;20197;-66
2021/07/03 11:04:20;;;;;;;3.70;3.40;;;26.50;99.90;;;;;;4951682;29;20772;-66
2021/07/03 11:06:50;;;;;;;3.53;3.33;;;26.40;99.90;;;;;;4952055;28;20581;-66
2021/07/03 11:09:23;;;;;;;3.22;3.03;;;26.40;99.90;;;;;;4941241;29;20228;-65
2021/07/03 11:11:50;;;;;;;3.10;2.90;;;26.50;99.90;;;;;;4952138;28;20232;-65
2021/07/03 11:14:18;;;;;;;3.95;3.67;;;26.50;99.90;;;;;;4966805;28;20286;-66
2021/07/03 11:16:50;;;;;;;3.67;3.45;;;26.50;99.90;;;;;;4950458;29;20208;-65
2021/07/03 11:19:22;;;;;;;3.00;2.80;;;26.40;99.90;;;;;;4950093;28;20324;-66
2021/07/03 11:21:51;;;;;;;3.80;3.55;;;26.50;99.90;;;;;;4951852;29;20201;-66
2021/07/03 11:24:17;;;;;;;3.25;3.05;;;26.50;99.90;;;;;;4941919;29;20369;-66
2021/07/03 11:26:44;;;;;;;2.83;2.72;;;26.50;99.90;;;;;;4950510;29;20848;-66
2021/07/03 11:29:11;;;;;;;2.90;2.80;;;26.50;99.90;;;;;;4949568;29;21024;-66
2021/07/03 11:31:38;;;;;;;2.55;2.45;;;26.60;99.90;;;;;;4950406;28;20208;-66
2021/07/03 11:34:05;;;;;;;2.55;2.35;;;26.70;99.90;;;;;;4951271;29;20236;-66
2021/07/03 11:36:32;;;;;;;3.50;3.22;;;26.90;99.90;;;;;;4951462;29;20287;-65
2021/07/03 11:39:01;;;;;;;3.47;3.28;;;27.00;99.90;;;;;;4951415;29;20740;-67
2021/07/03 11:41:30;;;;;;;3.50;3.30;;;27.10;99.90;;;;;;4951498;28;20312;-66
2021/07/03 11:44:01;;;;;;;3.13;3.03;;;27.10;99.90;;;;;;4946422;29;20240;-66
2021/07/03 11:46:29;;;;;;;2.53;2.42;;;27.20;99.90;;;;;;4950130;29;20599;-66
2021/07/03 11:48:56;;;;;;;2.90;2.70;;;27.30;99.90;;;;;;4951719;29;20217;-66
2021/07/03 11:51:23;;;;;;;2.53;2.42;;;27.50;99.90;;;;;;4943586;28;20272;-67
2021/07/03 11:53:52;;;;;;;2.72;2.63;;;27.70;99.90;;;;;;4950382;28;20213;-66
2021/07/03 11:56:22;;;;;;;2.63;2.53;;;27.90;99.90;;;;;;4951387;28;20280;-67
2021/07/03 11:58:51;;;;;;;3.00;2.80;;;28.00;99.90;;;;;;4951619;29;20197;-66
2021/07/03 12:01:19;;;;;;;2.22;2.13;;;28.20;99.90;;;;;;4951285;28;20230;-66
2021/07/03 12:03:48;;;;;;;3.45;3.20;;;28.60;99.90;;;;;;4950852;29;20629;-67
2021/07/03 12:06:20;;;;;;;2.83;2.63;;;29.00;99.90;;;;;;4951599;29;20284;-67
2021/07/03 12:08:51;;;;;;;3.40;3.20;;;29.20;99.90;;;;;;4946181;28;20251;-67
2021/07/03 12:11:22;;;;;;;3.92;3.30;;;29.20;99.90;;;;;;4955554;28;20197;-68
2021/07/03 12:13:50;;;;;;;3.20;3.00;;;29.30;99.90;;;;;;4955169;28;20248;-67
2021/07/03 12:16:20;;;;;;;2.78;2.67;;;29.30;99.90;;;;;;4954592;28;20205;-67
2021/07/03 12:18:49;;;;;;;3.08;2.90;;;29.30;99.90;;;;;;4954266;29;20280;-67
2021/07/03 12:21:18;;;;;;;3.50;3.25;;;29.40;99.90;;;;;;4955360;29;20204;-67
2021/07/03 12:23:54;;;;;;;3.33;3.13;;;29.50;99.80;;;;;;4954679;28;20292;-67
2021/07/03 12:26:24;;;;;;;3.58;3.38;;;29.60;99.40;;;;;;4969721;28;20236;-67
2021/07/03 12:28:54;;;;;;;2.78;2.67;;;29.70;99.30;;;;;;4969559;28;20606;-67
2021/07/03 12:31:25;;;;;;;2.70;2.50;;;29.90;99.00;;;;;;4954470;29;20212;-66
2021/07/03 12:34:02;;;;;;;2.58;2.45;;;29.90;98.60;;;;;;4954233;29;20511;-67
2021/07/03 12:36:30;;;;;;;2.38;2.28;;;30.00;98.40;;;;;;4954383;28;20209;-67
2021/07/03 12:39:05;;;;;;;2.65;2.55;;;29.90;97.90;;;;;;4954889;28;20197;-67
2021/07/03 12:41:34;;;;;;;2.53;2.33;;;29.90;97.80;;;;;;4954579;28;20574;-67
2021/07/03 12:44:02;;;;;;;3.88;3.50;;;29.80;97.70;;;;;;4954442;29;20287;-67
2021/07/03 12:46:33;;;;;;;4.60;4.30;;;29.70;96.90;;;;;;4952026;28;20716;-66
2021/07/03 12:49:01;;;;;;;4.85;4.38;;;29.60;96.70;;;;;;4954282;28;20228;-66
2021/07/03 12:51:33;;;;;;;4.72;4.43;;;29.20;97.00;;;;;;4953657;29;20753;-66
2021/07/03 12:54:01;;;;;;;5.13;4.65;;;28.90;97.50;;;;;;4942278;29;20197;-67